Trego, WI

11:53 AM CST on March 04, 2015 (GMT -0600)
Lampson | Change Station
CLOSE
Current Station
Personal Weather Station
Location: Trego, WI
Elevation: 1188 ft
Nearby Weather Stations

Elev 1188 ft 46.01 °N, 91.82 °W | Updated 9 seconds ago

Mostly Cloudy
Mostly Cloudy
8.6 °F
Feels Like 1 °F
N
4.2
Wind Variable Wind from ESE
Gusts 11.9 mph

Today
High -- | Low -- °F
--% Chance of Precip.
Yesterday
High -- | Low -- °F
Precip. -- in
6:41 AM 5:57 PM
Waxing Gibbous, 99% visible
Pressure 30.11 in
Visibility 8.0 miles
Clouds Few 2000 ft
Mostly Cloudy 2900 ft
Overcast 3600 ft
Windchill 1 °F
Dew Point -9 °F
Humidity 44%
Rainfall 0.00 in
Snow Depth Not available.
UV 1 out of 12
Pollen .10 out of 12
Air Quality Not available.
Flu Activity Not available.
SPECI KHYR 041729Z AUTO 28008G15KT 8SM FEW020 BKN029 OVC036 M17/M24 A3011 RMK AO2 T11671239

More Conditions Fewer Conditions

Pressure 30.11 in
Visibility 8.0 miles
Clouds Few 2000 ft
Mostly Cloudy 2900 ft
Overcast 3600 ft
Windchill 1 °F
Dew Point -9 °F
Humidity 44%
Rainfall 0.00 in
Snow Depth Not available.
UV 1 out of 12
Pollen .10 out of 12
Air Quality Not available.
Flu Activity Not available.
SPECI KHYR 041729Z AUTO 28008G15KT 8SM FEW020 BKN029 OVC036 M17/M24 A3011 RMK AO2 T11671239

More Conditions Fewer Conditions

10-Day Weather Forecast

Almanac

Astronomy

Mar. 04, 2015 Rise Set
Actual Time
Civil Twilight
Nautical Twilight
Astronomical Twilight
Moon
Length of Visible Light
Length of Day
Tomorrow will be .
, % of the Moon is Illuminated

Today's Extremes

State Highs State Lows

Community

WunderPhotos

Upload Photos

1,802,515 photos uploaded!

WunderBlogs® & News

Nearby

Air Quality

  Air Quality AQ Index Pollutant
Not available.

Snow Depth

Station Depth Elevation

Earthquake Activity

City Distance Mag. Time & Date
Minimum magnitude displayed is 2.5.

Coastal Water Temperatures

Place Temperature

Nearby Weather Stations